createdAt,value
2022-10-10T00:01:35.502Z,5.85
2022-10-10T00:04:04.059Z,5.90
2022-10-10T00:06:33.573Z,6.07
2022-10-10T00:09:01.625Z,10.25
2022-10-10T00:11:29.250Z,4.93
2022-10-10T00:13:56.612Z,5.47
2022-10-10T00:16:24.109Z,4.10
2022-10-10T00:18:52.072Z,8.40
2022-10-10T00:21:19.369Z,5.55
2022-10-10T00:23:46.302Z,3.17
2022-10-10T00:26:18.521Z,4.63
2022-10-10T00:28:47.059Z,5.70
2022-10-10T00:31:14.145Z,9.32
2022-10-10T00:33:41.124Z,7.68
2022-10-10T00:36:08.181Z,9.25
2022-10-10T00:38:35.630Z,5.72
2022-10-10T00:41:03.933Z,4.38
2022-10-10T00:43:31.835Z,6.30
2022-10-10T00:45:58.913Z,2.63
2022-10-10T00:48:39.425Z,3.85
2022-10-10T00:51:16.397Z,3.53
2022-10-10T00:53:49.429Z,4.07
2022-10-10T00:56:21.221Z,5.90
2022-10-10T00:58:54.081Z,3.58
2022-10-10T01:01:20.985Z,3.47
2022-10-10T01:03:48.507Z,5.75
2022-10-10T01:06:15.473Z,3.50
2022-10-10T01:08:43.000Z,4.82
2022-10-10T01:11:52.625Z,4.45
2022-10-10T01:14:33.580Z,3.38
2022-10-10T01:17:20.717Z,4.63
2022-10-10T01:20:44.758Z,4.82
2022-10-10T01:24:11.344Z,4.68
2022-10-10T01:27:09.977Z,5.43
2022-10-10T01:29:45.670Z,5.45
2022-10-10T01:32:21.947Z,4.88
2022-10-10T01:35:14.859Z,3.65
2022-10-10T01:37:55.344Z,2.53
2022-10-10T01:40:42.045Z,5.05
2022-10-10T01:43:11.471Z,4.10
2022-10-10T01:45:43.952Z,3.55
2022-10-10T01:48:10.879Z,7.25
2022-10-10T01:51:13.239Z,4.50
2022-10-10T01:54:02.233Z,5.57
2022-10-10T01:56:37.922Z,7.53
2022-10-10T01:59:26.652Z,5.50
2022-10-10T02:02:08.783Z,4.45
2022-10-10T02:05:15.775Z,7.65
2022-10-10T02:07:55.967Z,5.40
2022-10-10T02:10:31.327Z,11.40
2022-10-10T02:13:02.895Z,4.30
2022-10-10T02:15:39.379Z,4.68
2022-10-10T02:18:10.597Z,4.25
2022-10-10T02:20:37.548Z,2.70
2022-10-10T02:23:07.598Z,3.63
2022-10-10T02:25:39.916Z,4.57
2022-10-10T02:28:23.121Z,6.80
2022-10-10T02:30:53.708Z,5.00
2022-10-10T02:33:28.083Z,3.95
2022-10-10T02:35:56.523Z,4.80
2022-10-10T02:38:23.775Z,4.75
2022-10-10T02:40:51.176Z,4.95
2022-10-10T02:43:19.700Z,6.13
2022-10-10T02:45:47.012Z,6.78
2022-10-10T02:48:13.933Z,3.92
2022-10-10T02:50:40.893Z,7.38
2022-10-10T02:53:07.741Z,4.13
2022-10-10T02:55:34.581Z,5.15
2022-10-10T02:58:01.464Z,3.65
2022-10-10T03:00:28.272Z,3.92
2022-10-10T03:02:55.170Z,3.55
2022-10-10T03:05:21.979Z,3.47
2022-10-10T03:07:48.826Z,6.47
2022-10-10T03:10:15.798Z,6.65
2022-10-10T03:12:42.648Z,4.15
2022-10-10T03:15:11.927Z,4.93
2022-10-10T03:17:39.553Z,6.22
2022-10-10T03:20:08.563Z,4.95
2022-10-10T03:22:35.446Z,3.40
2022-10-10T03:25:02.389Z,7.70
2022-10-10T03:27:29.287Z,3.38
2022-10-10T03:29:56.112Z,4.47
2022-10-10T03:32:22.964Z,4.22
2022-10-10T03:34:49.890Z,5.82
2022-10-10T03:37:16.707Z,3.58
2022-10-10T03:39:43.566Z,4.63
2022-10-10T03:42:10.407Z,3.30
2022-10-10T03:44:37.477Z,4.65
2022-10-10T03:47:04.417Z,4.60
2022-10-10T03:49:31.252Z,8.13
2022-10-10T03:51:58.220Z,4.70
2022-10-10T03:54:25.047Z,4.95
2022-10-10T03:56:51.911Z,5.78
2022-10-10T03:59:18.772Z,7.93
2022-10-10T04:01:45.784Z,5.63
2022-10-10T04:04:12.630Z,3.65
2022-10-10T04:06:39.449Z,3.65
2022-10-10T04:09:06.465Z,4.00
2022-10-10T04:11:37.047Z,4.95
2022-10-10T04:14:04.357Z,4.72
2022-10-10T04:16:31.212Z,4.32
2022-10-10T04:18:58.203Z,6.60
2022-10-10T04:21:25.436Z,7.95
2022-10-10T04:23:52.339Z,4.60
2022-10-10T04:26:19.177Z,4.93
2022-10-10T04:28:46.316Z,4.28
2022-10-10T04:31:13.340Z,5.10
2022-10-10T04:33:40.204Z,4.82
2022-10-10T04:36:07.323Z,3.35
2022-10-10T04:38:36.189Z,4.85
2022-10-10T04:41:03.439Z,6.80
2022-10-10T04:43:30.302Z,2.95
2022-10-10T04:46:00.633Z,6.72
2022-10-10T04:48:27.446Z,4.40
2022-10-10T04:50:58.151Z,3.85
2022-10-10T04:53:30.436Z,5.13
2022-10-10T04:55:57.468Z,5.18
2022-10-10T04:58:24.443Z,2.65
2022-10-10T05:00:53.888Z,3.63
2022-10-10T05:03:22.727Z,6.97
2022-10-10T05:05:50.928Z,7.30
2022-10-10T05:08:18.659Z,4.13
2022-10-10T05:10:47.118Z,5.35
2022-10-10T05:13:16.882Z,4.85
2022-10-10T05:15:45.457Z,5.65
2022-10-10T05:18:15.723Z,4.97
2022-10-10T05:20:43.936Z,7.25
2022-10-10T05:23:17.309Z,3.50
2022-10-10T05:25:51.069Z,4.95
2022-10-10T05:28:18.628Z,6.57
2022-10-10T05:30:45.566Z,5.05
2022-10-10T05:33:12.398Z,5.53
2022-10-10T05:35:47.011Z,4.88
2022-10-10T05:38:14.284Z,5.50
2022-10-10T05:40:42.575Z,4.18
2022-10-10T05:43:15.109Z,6.10
2022-10-10T05:45:43.006Z,6.43
2022-10-10T05:48:10.449Z,4.15
2022-10-10T05:50:41.333Z,7.00
2022-10-10T05:53:08.460Z,5.90
2022-10-10T05:55:36.697Z,6.10
2022-10-10T05:58:04.533Z,5.78
2022-10-10T06:00:31.594Z,6.45
2022-10-10T06:02:58.798Z,6.85
2022-10-10T06:05:25.893Z,5.28
2022-10-10T06:08:05.844Z,8.70
2022-10-10T06:10:38.985Z,3.65
2022-10-10T06:13:06.077Z,5.82
2022-10-10T06:15:33.318Z,9.93
2022-10-10T06:18:00.264Z,5.97
2022-10-10T06:20:27.168Z,3.67
2022-10-10T06:22:54.322Z,4.53
2022-10-10T06:25:38.932Z,5.45
2022-10-10T06:28:06.726Z,5.10
2022-10-10T06:30:35.018Z,4.00
2022-10-10T06:33:02.459Z,4.53
2022-10-10T06:35:29.741Z,6.38
2022-10-10T06:37:56.544Z,5.72
2022-10-10T06:40:23.600Z,5.85
2022-10-10T06:42:50.697Z,4.13
2022-10-10T06:45:18.346Z,4.30
2022-10-10T06:47:45.210Z,3.58
2022-10-10T06:50:12.108Z,5.45
2022-10-10T06:52:41.406Z,7.57
2022-10-10T06:55:08.965Z,5.57
2022-10-10T06:57:35.850Z,6.07
2022-10-10T07:00:04.358Z,4.63
2022-10-10T07:02:31.466Z,4.78
2022-10-10T07:04:58.361Z,5.82
2022-10-10T07:07:25.306Z,4.22
2022-10-10T07:09:52.257Z,3.67
2022-10-10T07:12:19.100Z,4.55
2022-10-10T07:14:45.910Z,5.97
2022-10-10T07:17:13.275Z,3.22
2022-10-10T07:19:40.727Z,5.95
2022-10-10T07:22:07.708Z,4.13
2022-10-10T07:24:34.669Z,3.90
2022-10-10T07:27:07.833Z,5.03
2022-10-10T07:29:35.670Z,3.42
2022-10-10T07:32:02.521Z,4.50
2022-10-10T07:34:29.496Z,3.60
2022-10-10T07:36:56.401Z,3.90
2022-10-10T07:39:25.063Z,4.00
2022-10-10T07:41:52.313Z,6.53
2022-10-10T07:44:20.553Z,8.73
2022-10-10T07:46:47.460Z,3.42
2022-10-10T07:49:14.424Z,5.18
2022-10-10T07:51:41.399Z,4.22
2022-10-10T07:54:10.221Z,3.75
2022-10-10T07:56:37.084Z,3.25
2022-10-10T07:59:04.171Z,3.00
2022-10-10T08:01:31.103Z,5.30
2022-10-10T08:03:58.200Z,5.40
2022-10-10T08:06:25.172Z,4.07
2022-10-10T08:08:52.566Z,4.88
2022-10-10T08:11:22.073Z,5.35
2022-10-10T08:13:50.315Z,5.70
2022-10-10T08:16:17.893Z,4.32
2022-10-10T08:18:45.028Z,8.18
2022-10-10T08:21:14.711Z,4.60
2022-10-10T08:23:42.266Z,3.67
2022-10-10T08:26:13.433Z,3.35
2022-10-10T08:28:41.629Z,3.60
2022-10-10T08:31:13.030Z,5.57
2022-10-10T08:33:42.406Z,4.18
2022-10-10T08:36:18.443Z,3.63
2022-10-10T08:38:45.892Z,4.50
2022-10-10T08:42:02.537Z,3.60
2022-10-10T08:44:44.439Z,2.85
2022-10-10T08:47:30.010Z,2.95
2022-10-10T08:50:11.744Z,8.88
2022-10-10T08:52:57.590Z,4.57
2022-10-10T08:55:33.716Z,3.70
2022-10-10T08:58:39.373Z,3.78
2022-10-10T09:01:19.490Z,4.68
2022-10-10T09:03:52.338Z,4.47
2022-10-10T09:07:15.121Z,4.60
2022-10-10T09:10:15.249Z,5.07
2022-10-10T09:13:24.572Z,6.78
2022-10-10T09:16:17.740Z,4.85
2022-10-10T09:19:04.721Z,4.32
2022-10-10T09:21:36.830Z,4.55
2022-10-10T09:24:14.078Z,5.15
2022-10-10T09:27:06.289Z,5.30
2022-10-10T09:29:51.248Z,4.15
2022-10-10T09:32:38.375Z,6.72
2022-10-10T09:35:14.335Z,3.08
2022-10-10T09:37:47.328Z,3.53
2022-10-10T09:40:34.635Z,3.60
2022-10-10T09:43:16.518Z,4.00
2022-10-10T09:45:56.509Z,3.55
2022-10-10T09:48:33.950Z,4.25
2022-10-10T09:51:06.082Z,5.35
2022-10-10T09:53:34.241Z,5.05
2022-10-10T09:56:05.383Z,6.63
2022-10-10T09:58:43.577Z,4.30
2022-10-10T10:01:31.504Z,4.20
2022-10-10T10:04:28.372Z,7.63
2022-10-10T10:07:26.434Z,3.92
2022-10-10T10:10:00.313Z,4.88
2022-10-10T10:12:41.561Z,5.40
2022-10-10T10:15:32.010Z,2.92
2022-10-10T10:18:27.641Z,5.90
2022-10-10T10:24:18.594Z,3.90
2022-10-10T10:26:48.398Z,7.53
2022-10-10T10:29:49.920Z,3.95
2022-10-10T10:32:49.403Z,5.60
2022-10-10T10:35:31.568Z,4.97
2022-10-10T10:38:20.534Z,6.28
2022-10-10T10:41:23.400Z,5.32
2022-10-10T10:44:17.843Z,4.32
2022-10-10T10:47:20.974Z,4.03
2022-10-10T10:50:37.187Z,3.28
2022-10-10T10:53:10.027Z,5.35
2022-10-10T10:55:51.746Z,4.93
2022-10-10T10:59:09.851Z,5.75
2022-10-10T11:01:56.670Z,3.53
2022-10-10T11:05:24.363Z,4.63
2022-10-10T11:08:34.144Z,5.00
2022-10-10T11:11:48.631Z,6.22
2022-10-10T11:14:34.884Z,5.88
2022-10-10T11:17:36.284Z,5.70
2022-10-10T11:20:38.369Z,3.40
2022-10-10T11:23:13.090Z,5.80
2022-10-10T11:26:08.038Z,9.02
2022-10-10T11:28:49.708Z,4.15
2022-10-10T11:31:33.244Z,7.10
2022-10-10T11:34:12.141Z,5.05
2022-10-10T11:36:44.298Z,4.07
2022-10-10T11:39:42.267Z,6.03
2022-10-10T11:42:27.040Z,5.75
2022-10-10T11:45:04.234Z,6.47
2022-10-10T11:47:40.283Z,7.60
2022-10-10T11:50:18.315Z,6.22
2022-10-10T11:53:16.393Z,5.05
2022-10-10T11:56:18.430Z,4.13
2022-10-10T11:58:56.978Z,5.47
2022-10-10T12:01:38.132Z,5.68
2022-10-10T12:04:05.194Z,5.30
2022-10-10T12:06:54.051Z,5.65
2022-10-10T12:09:45.414Z,5.22
2022-10-10T12:12:49.286Z,6.00
2022-10-10T12:15:40.269Z,4.47
2022-10-10T12:18:52.286Z,4.75
2022-10-10T12:21:24.821Z,3.90
2022-10-10T12:24:13.786Z,3.90
2022-10-10T12:26:52.814Z,4.40
2022-10-10T12:29:51.120Z,6.30
2022-10-10T12:32:18.329Z,7.50
2022-10-10T12:34:48.298Z,5.05
2022-10-10T12:37:29.053Z,4.13
2022-10-10T12:40:10.030Z,4.32
2022-10-10T12:43:23.088Z,5.57
2022-10-10T12:46:43.889Z,8.50
2022-10-10T12:49:56.245Z,5.18
2022-10-10T12:53:31.509Z,4.07
2022-10-10T12:56:42.640Z,5.50
2022-10-10T12:59:25.716Z,5.85
2022-10-10T13:02:02.109Z,5.30
2022-10-10T13:04:30.136Z,4.75
2022-10-10T13:07:01.905Z,6.97
2022-10-10T13:09:35.810Z,5.53
2022-10-10T13:16:44.686Z,6.13
2022-10-10T13:19:22.654Z,4.75
2022-10-10T13:21:53.311Z,4.38
2022-10-10T13:24:33.020Z,3.92
2022-10-10T13:27:01.098Z,5.90
2022-10-10T13:29:36.833Z,4.18
2022-10-10T13:32:11.305Z,9.65
2022-10-10T13:34:45.283Z,5.63
2022-10-10T13:37:17.225Z,7.10
2022-10-10T13:39:44.824Z,5.30
2022-10-10T13:42:32.671Z,3.53
2022-10-10T13:45:29.485Z,6.57
2022-10-10T13:48:00.430Z,5.25
2022-10-10T13:51:43.572Z,5.60
2022-10-10T13:54:46.797Z,4.82
2022-10-10T13:57:28.456Z,7.28
2022-10-10T14:00:20.990Z,7.30
2022-10-10T14:02:49.762Z,5.60
2022-10-10T14:05:29.289Z,7.10
2022-10-10T14:07:57.999Z,6.57
2022-10-10T14:10:33.834Z,5.18
2022-10-10T14:13:01.293Z,6.05
2022-10-10T14:15:45.166Z,5.30
2022-10-10T14:18:24.081Z,7.32
2022-10-10T14:20:53.456Z,6.75
2022-10-10T14:23:20.556Z,7.50
2022-10-10T14:25:49.495Z,8.52
2022-10-10T14:28:29.885Z,5.45
2022-10-10T14:30:57.237Z,8.15
2022-10-10T14:33:26.519Z,7.38
2022-10-10T14:35:56.239Z,8.50
2022-10-10T14:38:23.297Z,4.70
2022-10-10T14:40:52.015Z,4.28
2022-10-10T14:43:20.547Z,6.72
2022-10-10T14:45:51.827Z,7.63
2022-10-10T14:48:19.450Z,4.68
2022-10-10T14:50:48.543Z,8.48
2022-10-10T14:53:17.032Z,4.18
2022-10-10T14:55:45.699Z,6.38
2022-10-10T14:58:19.530Z,5.57
2022-10-10T15:00:46.986Z,5.38
2022-10-10T15:03:14.896Z,4.38
2022-10-10T15:06:18.807Z,6.32
2022-10-10T15:08:46.044Z,4.22
2022-10-10T15:11:17.424Z,4.22
2022-10-10T15:13:44.372Z,7.45
2022-10-10T15:16:11.248Z,8.60
2022-10-10T15:18:53.830Z,5.03
2022-10-10T15:21:21.806Z,4.57
2022-10-10T15:23:49.153Z,5.80
2022-10-10T15:26:16.212Z,4.20
2022-10-10T15:28:43.144Z,4.72
2022-10-10T15:31:10.029Z,7.40
2022-10-10T15:33:36.889Z,4.88
2022-10-10T15:36:09.991Z,5.10
2022-10-10T15:38:38.346Z,5.50
2022-10-10T15:41:10.159Z,5.57
2022-10-10T15:44:04.072Z,7.60
2022-10-10T15:46:31.562Z,4.50
2022-10-10T15:49:02.039Z,4.53
2022-10-10T15:51:49.675Z,5.78
2022-10-10T15:54:16.653Z,5.00
2022-10-10T15:56:43.465Z,6.70
2022-10-10T15:59:13.381Z,6.55
2022-10-10T16:01:40.333Z,4.75
2022-10-10T16:04:07.163Z,7.00
2022-10-10T16:06:34.065Z,6.90
2022-10-10T16:09:23.423Z,4.68
2022-10-10T16:11:49.026Z,4.78
2022-10-10T16:14:16.075Z,4.53
2022-10-10T16:16:43.017Z,6.75
2022-10-10T16:19:10.128Z,6.53
2022-10-10T16:21:37.041Z,7.00
2022-10-10T16:24:06.750Z,5.40
2022-10-10T16:26:35.466Z,7.18
2022-10-10T16:29:04.601Z,4.38
2022-10-10T16:31:32.712Z,6.05
2022-10-10T16:34:00.042Z,9.80
2022-10-10T16:36:30.890Z,6.10
2022-10-10T16:38:59.071Z,7.40
2022-10-10T16:41:48.668Z,4.10
2022-10-10T16:44:17.577Z,6.65
2022-10-10T16:46:44.966Z,7.43
2022-10-10T16:49:16.858Z,6.93
2022-10-10T16:51:43.781Z,7.85
2022-10-10T16:54:10.693Z,6.03
2022-10-10T17:00:08.285Z,9.63
2022-10-10T17:02:35.711Z,5.43
2022-10-10T17:05:02.866Z,7.85
2022-10-10T17:07:29.907Z,8.55
2022-10-10T17:09:57.039Z,8.70
2022-10-10T17:12:24.223Z,8.30
2022-10-10T17:14:51.351Z,9.15
2022-10-10T17:17:19.473Z,10.23
2022-10-10T17:19:49.102Z,9.90
2022-10-10T17:22:17.021Z,9.55
2022-10-10T17:24:44.949Z,10.68
2022-10-10T17:27:12.142Z,6.78
2022-10-10T17:29:39.166Z,10.02
2022-10-10T17:32:06.885Z,7.78
2022-10-10T17:34:34.902Z,8.77
2022-10-10T17:37:03.139Z,7.95
2022-10-10T17:39:30.992Z,6.38
2022-10-10T17:41:58.032Z,7.55
2022-10-10T17:44:25.083Z,6.60
2022-10-10T17:46:52.000Z,8.07
2022-10-10T17:49:19.351Z,8.27
2022-10-10T17:51:47.883Z,11.70
2022-10-10T17:54:15.074Z,7.25
2022-10-10T17:56:44.516Z,11.75
2022-10-10T17:59:12.607Z,6.97
2022-10-10T18:01:40.140Z,8.48
2022-10-10T18:04:07.577Z,7.65
2022-10-10T18:06:36.877Z,6.60
2022-10-10T18:09:04.147Z,8.10
2022-10-10T18:11:31.926Z,9.77
2022-10-10T18:14:01.818Z,7.78
2022-10-10T18:16:35.898Z,10.23
2022-10-10T18:19:07.432Z,10.60
2022-10-10T18:21:35.091Z,8.68
2022-10-10T18:24:02.000Z,6.70
2022-10-10T18:26:30.791Z,8.60
2022-10-10T18:28:58.665Z,6.95
2022-10-10T18:31:30.001Z,8.60
2022-10-10T18:33:57.127Z,8.85
2022-10-10T18:36:28.065Z,7.25
2022-10-10T18:39:00.038Z,12.27
2022-10-10T18:41:33.691Z,7.65
2022-10-10T18:44:10.323Z,6.60
2022-10-10T18:46:37.792Z,8.80
2022-10-10T18:49:09.171Z,9.90
2022-10-10T18:51:39.699Z,12.27
2022-10-10T18:54:08.962Z,9.48
2022-10-10T18:56:39.079Z,9.85
2022-10-10T18:59:11.828Z,10.48
2022-10-10T19:01:40.254Z,6.82
2022-10-10T19:04:09.912Z,8.57
2022-10-10T19:06:39.379Z,10.00
2022-10-10T19:09:10.315Z,11.30
2022-10-10T19:11:41.081Z,9.88
2022-10-10T19:14:12.166Z,8.88
2022-10-10T19:16:41.447Z,9.18
2022-10-10T19:19:10.956Z,9.15
2022-10-10T19:21:39.518Z,10.88
2022-10-10T19:24:08.732Z,13.60
2022-10-10T19:26:36.528Z,9.70
2022-10-10T19:29:08.417Z,9.93
2022-10-10T19:31:37.985Z,9.10
2022-10-10T19:34:05.386Z,10.48
2022-10-10T19:36:33.068Z,11.95
2022-10-10T19:39:01.240Z,12.77
2022-10-10T19:41:29.379Z,8.70
2022-10-10T19:44:04.687Z,10.60
2022-10-10T19:46:36.677Z,10.75
2022-10-10T19:49:04.661Z,13.68
2022-10-10T19:51:31.830Z,13.95
2022-10-10T19:53:59.004Z,12.25
2022-10-10T19:56:26.647Z,12.85
2022-10-10T19:58:57.380Z,8.70
2022-10-10T20:01:29.738Z,10.45
2022-10-10T20:03:57.669Z,7.15
2022-10-10T20:06:24.766Z,12.63
2022-10-10T20:08:51.969Z,9.52
2022-10-10T20:11:20.371Z,10.77
2022-10-10T20:13:52.385Z,11.60
2022-10-10T20:16:19.654Z,8.38
2022-10-10T20:18:46.722Z,8.18
2022-10-10T20:21:22.073Z,12.00
2022-10-10T20:23:50.109Z,8.95
2022-10-10T20:26:23.406Z,10.30
2022-10-10T20:28:51.739Z,9.65
2022-10-10T20:31:23.927Z,9.07
2022-10-10T20:33:54.311Z,10.15
2022-10-10T20:36:23.416Z,10.18
2022-10-10T20:39:04.726Z,12.68
2022-10-10T20:41:34.490Z,11.75
2022-10-10T20:44:04.856Z,13.10
2022-10-10T20:46:38.552Z,14.00
2022-10-10T20:49:11.678Z,11.82
2022-10-10T20:51:38.839Z,9.15
2022-10-10T20:54:06.970Z,9.85
2022-10-10T20:56:35.852Z,9.27
2022-10-10T20:59:02.889Z,12.45
2022-10-10T21:01:30.854Z,11.93
2022-10-10T21:03:58.621Z,13.73
2022-10-10T21:06:31.820Z,10.27
2022-10-10T21:09:01.882Z,11.38
2022-10-10T21:11:28.791Z,9.07
2022-10-10T21:13:58.372Z,9.45
2022-10-10T21:16:32.247Z,15.07
2022-10-10T21:19:00.468Z,17.85
2022-10-10T21:21:30.885Z,10.77
2022-10-10T21:23:58.116Z,12.68
2022-10-10T21:26:28.715Z,13.73
2022-10-10T21:28:57.211Z,11.73
2022-10-10T21:31:34.855Z,9.75
2022-10-10T21:34:04.557Z,12.13
2022-10-10T21:36:34.755Z,13.90
2022-10-10T21:39:02.212Z,13.05
2022-10-10T21:41:29.283Z,10.60
2022-10-10T21:44:00.405Z,12.18
2022-10-10T21:46:35.607Z,13.10
2022-10-10T21:49:07.526Z,14.82
2022-10-10T21:51:41.662Z,11.02
2022-10-10T21:54:09.853Z,15.07
2022-10-10T21:56:37.701Z,11.68
2022-10-10T21:59:05.711Z,12.75
2022-10-10T22:01:33.566Z,9.63
2022-10-10T22:04:02.049Z,9.32
2022-10-10T22:06:30.038Z,13.00
2022-10-10T22:08:59.653Z,11.57
2022-10-10T22:11:29.878Z,14.77
2022-10-10T22:13:57.061Z,12.30
2022-10-10T22:16:24.520Z,10.52
2022-10-10T22:18:56.594Z,12.07
2022-10-10T22:21:29.405Z,13.75
2022-10-10T22:24:01.334Z,12.88
2022-10-10T22:26:28.761Z,11.95
2022-10-10T22:28:55.638Z,8.25
2022-10-10T22:31:22.586Z,12.27
2022-10-10T22:33:49.399Z,8.57
2022-10-10T22:36:16.277Z,11.73
2022-10-10T22:38:45.074Z,11.20
2022-10-10T22:41:13.283Z,13.45
2022-10-10T22:43:40.311Z,10.35
2022-10-10T22:46:08.823Z,10.77
2022-10-10T22:48:36.011Z,10.20
2022-10-10T22:51:08.564Z,12.02
2022-10-10T22:53:35.896Z,10.82
2022-10-10T22:56:03.813Z,11.30
2022-10-10T22:58:34.445Z,11.40
2022-10-10T23:01:08.329Z,13.15
2022-10-10T23:03:35.649Z,12.00
2022-10-10T23:06:02.870Z,8.98
2022-10-10T23:08:30.619Z,11.02
2022-10-10T23:10:58.167Z,17.05
2022-10-10T23:13:25.299Z,11.85
2022-10-10T23:15:52.243Z,11.75
2022-10-10T23:18:19.304Z,12.90
2022-10-10T23:20:47.315Z,10.07
2022-10-10T23:23:16.523Z,12.10
2022-10-10T23:25:46.463Z,10.55
2022-10-10T23:28:14.701Z,11.73
2022-10-10T23:30:44.659Z,13.45
2022-10-10T23:33:12.866Z,9.98
2022-10-10T23:35:39.777Z,16.67
2022-10-10T23:38:07.145Z,9.57
2022-10-10T23:40:34.260Z,9.45
2022-10-10T23:43:01.230Z,12.13
2022-10-10T23:45:28.297Z,13.65
2022-10-10T23:47:55.205Z,7.70
2022-10-10T23:50:22.125Z,10.85
2022-10-10T23:52:48.952Z,13.77
2022-10-10T23:55:15.815Z,15.25
2022-10-10T23:57:42.687Z,11.52
